AirNav   Air Wisconsin Up To $57,000 Bonus
 
 1080 users online  

1OK1 Dave's Place Airport
Kingfisher, Oklahoma, USA

GOING TO KINGFISHER?


FAA INFORMATION EFFECTIVE 03 NOVEMBER 2022

Location

FAA Identifier: 1OK1
Lat/Long: 35-49-29.0500N 097-48-18.1800W
35-49.484167N 097-48.303000W
35.8247361,-97.8050500
(estimated)
Elevation: 1160 ft. / 354 m
From city: 5 miles ESE of KINGFISHER, OK
Time zone: UTC -6 (UTC -5 during Daylight Saving Time)
Zip code: 73016

Airport Operations

Airport use: Private use. Permission required prior to landing
Activation date: 10/2015
Control tower: no
ARTCC: FORT WORTH CENTER
FSS: MC ALESTER FLIGHT SERVICE STATION
Attendance: UNATNDD
Segmented circle: no

Airport Communications

WX AWOS-3 at HSD (14 nm S): 120.975 (405-283-9848)
WX ASOS at GOK (19 nm E): 133.975 (405-282-0478)
WX ASOS at PWA (19 nm SE): PHONE 405-798-2013

Nearby radio navigation aids

VOR radial/distance  VOR name  Freq  Var
PWAr328/19.1WILEY POST VOR/DME113.4008E
IRWr334/29.6WILL ROGERS VORTAC114.1007E
ENDr165/31.7VANCE VORTAC115.4005E
ODGr173/33.0WOODRING VOR/DME109.0008E

Airport Services

Runway Information

Runway 18/36

Dimensions: 2600 x 75 ft. / 792 x 23 m
Surface: turf
RUNWAY 18  RUNWAY 36
Traffic pattern: leftleft

Airport Ownership and Management from official FAA records

Ownership: Privately-owned
Owner: RICHARD GRELLNER
434 N.W. 18TH
OKLAHOMA CITY, OK 73103
Phone 405-834-8484
Manager: RICHARD GRELLNER
434 N.W. 18TH
OKLAHOMA CITY, OK 73103
Phone 405-834-8484

Additional Remarks

FOR CD CTC OKE CITY APCH AT 405-681-5683.

Instrument Procedures

There are no published instrument procedures at 1OK1.

Some nearby airports with instrument procedures:

KHSD - Sundance Airport (14 nm S)
KGOK - Guthrie/Edmond Regional Airport (19 nm E)
KPWA - Wiley Post Airport (19 nm SE)
KRCE - Clarence E Page Municipal Airport (20 nm S)
KRQO - El Reno Regional Airport (23 nm SW)
 
Loc | Ops | Rwys | IFR | FBO | Links
Com | Nav | Svcs | Stats | Notes
Aerial photo
No photo
 
Airport distance calculator
Flying to Dave's Place Airport? Find the distance to fly.

From to 1OK1

Sunrise and sunset
Times for 29-Nov-2022
 Local
(UTC-6)
 Zulu
(UTC)
Morning civil twilight06:5412:54
Sunrise07:2213:22
Sunset17:1723:17
Evening civil twilight17:4523:45

Current date and time
Zulu (UTC)  30-Nov-2022 01:14:34
Local (UTC-6)  29-Nov-2022 19:14:34
 
METAR
KHSD 
14nm S 
300055Z AUTO 34017G22KT 10SM BKN027 02/M03 A3003 RMK A01
KPWA 
19nm SE 
300053Z 34019G23KT 10SM BKN025 BKN032 03/M03 A3001
KGOK 
20nm E 
300053Z AUTO 34007G17KT 10SM FEW027 01/M04 A3004 RMK AO2 SLP179 T00111044
KRCE 
20nm S 
300055Z AUTO 35017G23KT 10SM -UP BKN024 02/M03 A3001 RMK AO2
KRQO 
23nm SW 
291655Z AUTO 27016KT 10SM CLR 16/04 A2969 RMK AO2 T01590042
KOKC 
28nm S 
300052Z 35021G28KT 10SM SCT026 03/M02 A2999 RMK AO2 PK WND 34029/2356 SLP157 T00281022
TAF
KOKC 
28nm S 
291726Z 2918/3018 26017G24KT P6SM SKC FM292000 34018G27KT P6SM SCT090 TEMPO 3000/3003 34025G32KT FM300800 35014KT P6SM SKC FM300900 35010KT P6SM SKC
KEND 
30nm N 
292004Z 2920/3024 30015G25KT 9999 BKN025 QNH2975INS BECMG 2923/2924 34020G30KT 9999 SCT015 QNH2985INS BECMG 3006/3007 34012KT 9999 FEW250 QNH3015INS TX06/2920Z TN05/3012Z
KTIK 
33nm SE 
291000Z 2910/3016 17012G20KT 9999 SCT250 WS020/21050KT QNH2955INS BECMG 2914/2915 21015G25KT 9999 BKN250 510053 QNH2957INS BECMG 2923/2924 33020G30KT 9999 BKN200 510053 QNH2971INS BECMG 3005/3006 35012G20KT 9999 FEW150 510023 QNH3015INS TX19/2920Z TN02/3007Z
NOTAMs
Click for the latest NOTAMs
NOTAMs are issued by the DoD/FAA and will open in a separate window not controlled by AirNav.

 

 
 

Would you like to see your business listed on this page?

 If your business provides an interesting product or service to pilots, flight crews, aircraft, or users of the Dave's Place Airport, you should consider listing it here.  To start the listing process, click on the button below
 
Add a business
 

Other Pages about Dave's Place Airport

Update a link
 
Copyright © AirNav, LLC. All rights reserved. Privacy Policy  Contact